Buena Vista, Wisconsin
Current Conditions -  °F | °C
As of 10:15 AM on Monday 22 Dec 2014 (Local Time) from KSTE Reporting Station
Haze Haze  
Wind Chill: 25°   Ceiling: 700
Heat Index: 32°   Visibility: 3mi
Dew Point: 30°   Wind: 8mph
Humidity: 93%   Direction: 140°SE
Pressure: 29.83"   Gusts: NA
Location:  44.4117°N, 89.5378°W
Report Text: KSTE 221615Z AUTO 14007KT 3SM BR OVC007 00/M01 A2983 RMK AO2 T00001010
Loading
Personal Weather Stations






























Interactive Weather Map New forecast layout! Learn more

10-Day Weather Forecast

Advertisements
Track Severe Weather on mobile